createdAt,value
2023-02-11T02:03:56.847Z,17.27
2023-02-11T02:15:15.304Z,15.40
2023-02-11T02:33:22.632Z,12.77
2023-02-11T02:36:28.282Z,12.55
2023-02-11T02:39:44.664Z,12.80
2023-02-11T03:20:20.680Z,13.95
2023-02-11T03:22:53.437Z,13.70
2023-02-11T03:25:23.247Z,12.55
2023-02-11T03:28:04.252Z,10.55
2023-02-11T03:30:41.388Z,10.15
2023-02-11T03:33:18.753Z,11.27
2023-02-11T03:36:15.668Z,10.25
2023-02-11T03:38:55.697Z,11.82
2023-02-11T03:41:25.372Z,10.77
2023-02-11T03:43:57.253Z,9.68
2023-02-11T03:46:32.655Z,9.48
2023-02-11T03:49:07.449Z,11.05
2023-02-11T03:51:37.416Z,10.80
2023-02-11T03:54:10.819Z,9.23
2023-02-11T03:56:52.927Z,9.20
2023-02-11T03:59:21.653Z,9.38
2023-02-11T04:01:49.771Z,8.90
2023-02-11T04:04:18.182Z,9.30
2023-02-11T04:06:46.483Z,8.63
2023-02-11T04:09:15.480Z,9.38
2023-02-11T04:11:43.428Z,7.57
2023-02-11T04:14:11.603Z,7.28
2023-02-11T04:16:39.528Z,6.88
2023-02-11T04:19:07.668Z,7.53
2023-02-11T04:21:35.916Z,8.23
2023-02-11T04:24:04.799Z,8.05
2023-02-11T04:26:33.246Z,8.90
2023-02-11T04:29:01.358Z,8.30
2023-02-11T04:31:29.767Z,7.78
2023-02-11T04:33:57.799Z,7.22
2023-02-11T04:36:25.716Z,7.13
2023-02-11T04:38:53.977Z,6.50
2023-02-11T04:41:22.331Z,6.53
2023-02-11T04:43:52.522Z,5.95
2023-02-11T04:46:21.135Z,5.72
2023-02-11T04:48:49.647Z,7.32
2023-02-11T04:51:17.769Z,6.70
2023-02-11T04:53:45.669Z,6.07
2023-02-11T04:56:13.704Z,5.78
2023-02-11T04:58:42.244Z,5.95
2023-02-11T05:01:12.760Z,5.80
2023-02-11T05:03:42.016Z,5.95
2023-02-11T05:06:11.748Z,5.85
2023-02-11T05:08:40.305Z,6.07
2023-02-11T05:11:09.240Z,6.13
2023-02-11T05:13:37.403Z,5.43
2023-02-11T05:16:06.244Z,7.22
2023-02-11T05:18:34.190Z,7.25
2023-02-11T05:21:08.134Z,6.60
2023-02-11T05:23:43.320Z,6.75
2023-02-11T05:26:14.205Z,5.30
2023-02-11T05:28:46.274Z,6.00
2023-02-11T05:31:24.273Z,6.20
2023-02-11T05:33:54.634Z,5.57
2023-02-11T05:36:28.561Z,5.28
2023-02-11T05:38:56.764Z,5.93
2023-02-11T05:41:32.457Z,6.78
2023-02-11T05:44:01.092Z,6.95
2023-02-11T05:46:33.843Z,7.38
2023-02-11T05:49:02.414Z,6.03
2023-02-11T05:51:40.844Z,5.55
2023-02-11T05:54:12.848Z,5.38
2023-02-11T05:56:44.999Z,6.43
2023-02-11T05:59:29.429Z,6.55
2023-02-11T06:02:11.662Z,5.85
2023-02-11T06:04:47.842Z,4.97
2023-02-11T06:07:20.185Z,5.50
2023-02-11T06:09:59.558Z,6.22
2023-02-11T06:12:36.969Z,7.20
2023-02-11T06:15:24.699Z,6.00
2023-02-11T06:17:55.115Z,6.40
2023-02-11T06:20:35.308Z,5.60
2023-02-11T06:23:10.664Z,5.82
2023-02-11T06:25:40.976Z,6.47
2023-02-11T06:28:18.422Z,5.90
2023-02-11T06:30:55.553Z,5.80
2023-02-11T06:33:38.303Z,5.65
2023-02-11T06:36:18.723Z,5.30
2023-02-11T06:41:21.657Z,5.53
2023-02-11T06:43:56.656Z,5.40
2023-02-11T06:46:25.386Z,5.60
2023-02-11T06:49:03.193Z,5.60
2023-02-11T06:51:33.725Z,5.88
2023-02-11T06:54:03.860Z,5.85
2023-02-11T06:56:32.035Z,5.38
2023-02-11T06:59:01.242Z,5.38
2023-02-11T07:01:30.015Z,5.35
2023-02-11T07:03:58.676Z,5.05
2023-02-11T07:06:28.351Z,5.07
2023-02-11T07:08:57.056Z,9.93
2023-02-11T07:11:29.115Z,8.05
2023-02-11T07:14:02.205Z,6.20
2023-02-11T07:16:32.311Z,5.13
2023-02-11T07:19:06.642Z,6.72
2023-02-11T07:21:34.945Z,5.22
2023-02-11T07:24:08.287Z,6.13
2023-02-11T07:26:42.186Z,6.68
2023-02-11T07:29:30.490Z,5.82
2023-02-11T07:32:00.045Z,7.97
2023-02-11T07:34:32.316Z,6.07
2023-02-11T07:37:15.825Z,6.93
2023-02-11T07:40:26.941Z,4.80
2023-02-11T07:43:10.130Z,4.63
2023-02-11T07:45:52.055Z,4.55
2023-02-11T07:48:44.496Z,4.10
2023-02-11T07:51:25.820Z,4.20
2023-02-11T07:56:34.052Z,4.25
2023-02-11T07:59:04.961Z,3.97
2023-02-11T08:01:36.209Z,4.03
2023-02-11T08:04:25.369Z,3.72
2023-02-11T08:07:02.523Z,4.10
2023-02-11T08:09:34.582Z,4.20
2023-02-11T08:12:05.580Z,4.50
2023-02-11T08:14:37.010Z,5.00
2023-02-11T08:17:07.687Z,4.60
2023-02-11T08:19:36.932Z,4.55
2023-02-11T08:22:21.865Z,4.70
2023-02-11T08:25:34.937Z,5.53
2023-02-11T08:28:16.034Z,4.83
2023-02-11T08:31:11.488Z,5.20
2023-02-11T08:33:41.389Z,4.90
2023-02-11T08:36:20.444Z,4.63
2023-02-11T08:38:49.511Z,4.80
2023-02-11T08:41:20.408Z,5.07
2023-02-11T08:43:49.725Z,5.38
2023-02-11T08:46:20.663Z,5.07
2023-02-11T08:48:50.994Z,3.80
2023-02-11T08:51:28.056Z,4.57
2023-02-11T08:54:03.682Z,4.10
2023-02-11T08:56:33.700Z,4.50
2023-02-11T08:59:02.380Z,4.50
2023-02-11T09:01:34.831Z,4.25
2023-02-11T09:04:03.319Z,4.00
2023-02-11T09:06:32.330Z,4.68
2023-02-11T09:09:00.599Z,5.07
2023-02-11T09:11:34.076Z,6.35
2023-02-11T09:14:05.275Z,6.75
2023-02-11T09:16:41.449Z,5.43
2023-02-11T09:19:11.404Z,4.50
2023-02-11T09:21:47.879Z,4.90
2023-02-11T09:24:19.766Z,5.15
2023-02-11T09:26:51.145Z,5.38
2023-02-11T09:29:30.749Z,5.22
2023-02-11T09:32:01.780Z,5.10
2023-02-11T09:34:40.951Z,5.63
2023-02-11T09:37:20.138Z,5.25
2023-02-11T09:39:51.958Z,5.53
2023-02-11T09:42:34.234Z,5.97
2023-02-11T09:45:17.327Z,6.50
2023-02-11T09:48:17.513Z,7.68
2023-02-11T09:50:52.341Z,6.45
2023-02-11T09:54:30.913Z,6.78
2023-02-11T10:00:04.898Z,4.70
2023-02-11T10:03:23.079Z,5.53
2023-02-11T10:05:58.102Z,5.38
2023-02-11T10:09:21.729Z,5.75
2023-02-11T10:12:27.184Z,5.78
2023-02-11T10:15:20.428Z,5.55
2023-02-11T10:18:34.413Z,5.88
2023-02-11T10:21:42.109Z,5.10
2023-02-11T10:24:15.275Z,5.35
2023-02-11T10:26:46.831Z,4.68
2023-02-11T10:29:55.221Z,4.28
2023-02-11T10:32:43.229Z,4.28
2023-02-11T10:36:04.063Z,4.03
2023-02-11T10:39:07.109Z,4.70
2023-02-11T10:42:00.113Z,4.05
2023-02-11T10:44:36.555Z,3.80
2023-02-11T10:47:44.176Z,4.30
2023-02-11T10:50:39.194Z,9.35
2023-02-11T10:53:28.272Z,15.77
2023-02-11T10:56:08.657Z,6.78
2023-02-11T10:59:48.706Z,4.78
2023-02-11T11:02:56.387Z,4.60
2023-02-11T11:05:38.014Z,5.40
2023-02-11T11:09:16.253Z,5.43
2023-02-11T11:11:17.694Z,5.93
2023-02-11T11:14:22.566Z,5.60
2023-02-11T11:16:54.880Z,6.88
2023-02-11T11:19:42.130Z,6.03
2023-02-11T11:22:22.620Z,4.75
2023-02-11T11:25:04.874Z,4.93
2023-02-11T11:27:33.482Z,4.97
2023-02-11T11:30:03.769Z,5.10
2023-02-11T11:32:34.022Z,5.70
2023-02-11T11:35:20.955Z,5.60
2023-02-11T11:38:11.574Z,6.15
2023-02-11T11:40:41.952Z,6.03
2023-02-11T11:43:14.527Z,5.55
2023-02-11T11:46:03.110Z,5.78
2023-02-11T11:48:42.603Z,5.78
2023-02-11T11:51:14.066Z,5.65
2023-02-11T11:53:52.902Z,5.40
2023-02-11T11:56:24.757Z,5.28
2023-02-11T11:58:54.777Z,5.97
2023-02-11T12:01:52.482Z,5.90
2023-02-11T12:04:38.927Z,6.90
2023-02-11T12:07:12.948Z,5.60
2023-02-11T12:09:55.971Z,5.05
2023-02-11T12:12:23.876Z,4.93
2023-02-11T12:15:08.855Z,5.63
2023-02-11T12:18:06.873Z,5.20
2023-02-11T12:20:56.684Z,5.00
2023-02-11T12:24:02.978Z,4.70
2023-02-11T12:26:58.240Z,4.82
2023-02-11T12:29:30.119Z,4.45
2023-02-11T12:32:10.344Z,4.75
2023-02-11T12:35:01.655Z,5.15
2023-02-11T12:37:42.187Z,6.38
2023-02-11T12:40:30.293Z,6.47
2023-02-11T12:43:37.288Z,7.10
2023-02-11T12:46:50.521Z,6.40
2023-02-11T12:49:48.368Z,5.70
2023-02-11T12:52:28.506Z,4.80
2023-02-11T12:55:05.910Z,5.15
2023-02-11T12:57:36.828Z,5.15
2023-02-11T13:00:18.809Z,4.93
2023-02-11T13:02:56.832Z,3.85
2023-02-11T13:05:53.276Z,4.05
2023-02-11T13:08:49.679Z,3.60
2023-02-11T13:11:28.957Z,3.30
2023-02-11T13:14:33.242Z,3.63
2023-02-11T13:17:40.519Z,3.38
2023-02-11T13:20:40.677Z,3.17
2023-02-11T13:23:52.554Z,3.30
2023-02-11T13:26:44.929Z,2.70
2023-02-11T13:30:01.838Z,3.10
2023-02-11T13:33:03.831Z,3.45
2023-02-11T13:35:48.891Z,3.90
2023-02-11T13:38:22.660Z,4.00
2023-02-11T13:41:24.042Z,4.03
2023-02-11T13:44:12.202Z,5.70
2023-02-11T13:47:06.270Z,5.03
2023-02-11T13:50:32.224Z,4.18
2023-02-11T13:53:20.241Z,4.20
2023-02-11T13:56:51.802Z,4.50
2023-02-11T13:59:35.699Z,4.22
2023-02-11T14:02:49.322Z,3.92
2023-02-11T14:05:48.552Z,3.40
2023-02-11T14:08:55.974Z,4.40
2023-02-11T14:11:39.088Z,18.42
2023-02-11T14:14:34.094Z,24.58
2023-02-11T14:17:17.863Z,23.70
2023-02-11T14:19:53.866Z,24.85
2023-02-11T14:22:44.217Z,19.30
2023-02-11T14:25:25.466Z,19.92
2023-02-11T14:28:18.847Z,8.32
2023-02-11T14:31:05.384Z,24.10
2023-02-11T14:33:46.949Z,14.93
2023-02-11T14:36:46.623Z,4.70
2023-02-11T14:39:18.355Z,4.22
2023-02-11T14:41:59.840Z,8.85
2023-02-11T14:44:35.005Z,6.25
2023-02-11T14:47:53.148Z,19.92
2023-02-11T14:51:11.142Z,7.03
2023-02-11T14:53:44.896Z,5.90
2023-02-11T14:56:26.844Z,6.47
2023-02-11T14:59:02.002Z,7.03
2023-02-11T15:01:44.087Z,7.20
2023-02-11T15:04:26.848Z,13.00
2023-02-11T15:06:57.889Z,16.25
2023-02-11T15:09:41.028Z,16.27
2023-02-11T15:12:28.303Z,14.27
2023-02-11T15:15:01.071Z,13.82
2023-02-11T15:17:33.020Z,13.93
2023-02-11T15:20:02.882Z,13.57
2023-02-11T15:22:37.137Z,13.35
2023-02-11T15:25:17.179Z,12.27
2023-02-11T15:27:51.880Z,13.15
2023-02-11T15:30:22.986Z,14.00
2023-02-11T15:33:21.058Z,15.57
2023-02-11T15:36:17.486Z,18.42
2023-02-11T15:38:45.630Z,15.40
2023-02-11T15:41:37.109Z,12.55
2023-02-11T15:44:05.158Z,13.38
2023-02-11T15:46:40.519Z,12.43
2023-02-11T15:49:19.493Z,14.68
2023-02-11T15:51:48.309Z,24.00
2023-02-11T15:54:29.658Z,22.70
2023-02-11T15:57:05.278Z,15.40
2023-02-11T15:59:41.462Z,13.88
2023-02-11T16:02:22.320Z,15.38
2023-02-11T16:04:56.600Z,18.17
2023-02-11T16:07:47.810Z,15.77
2023-02-11T16:10:32.406Z,29.15
2023-02-11T16:13:06.334Z,17.70
2023-02-11T16:15:34.649Z,12.80
2023-02-11T16:18:04.819Z,10.77
2023-02-11T16:20:32.796Z,10.63
2023-02-11T16:23:02.815Z,10.13
2023-02-11T16:25:32.274Z,9.65
2023-02-11T16:28:00.842Z,8.85
2023-02-11T16:30:39.087Z,9.65
2023-02-11T16:33:07.061Z,8.10
2023-02-11T16:35:34.958Z,8.88
2023-02-11T16:38:03.167Z,11.00
2023-02-11T16:40:31.104Z,13.07
2023-02-11T16:42:59.102Z,13.02
2023-02-11T16:45:27.393Z,11.73
2023-02-11T16:47:55.704Z,10.63
2023-02-11T16:50:25.783Z,11.30
2023-02-11T16:52:53.879Z,13.93
2023-02-11T16:55:24.015Z,19.02
2023-02-11T16:57:51.967Z,29.17
2023-02-11T17:00:21.063Z,31.40
2023-02-11T17:02:51.780Z,27.10
2023-02-11T17:05:23.308Z,29.00
2023-02-11T17:07:51.664Z,30.88
2023-02-11T17:10:22.725Z,30.65
2023-02-11T17:12:53.806Z,33.47
2023-02-11T17:15:21.788Z,34.83
2023-02-11T17:17:49.755Z,39.78
2023-02-11T17:20:17.871Z,39.92
2023-02-11T17:22:45.793Z,33.53
2023-02-11T17:25:13.802Z,27.60
2023-02-11T17:27:42.150Z,25.85
2023-02-11T17:30:11.768Z,17.13
2023-02-11T17:32:39.853Z,14.43
2023-02-11T17:35:08.282Z,20.73
2023-02-11T17:37:36.391Z,18.15
2023-02-11T17:40:04.445Z,32.53
2023-02-11T17:42:32.409Z,29.83
2023-02-11T17:45:00.311Z,28.13
2023-02-11T17:47:28.270Z,24.20
2023-02-11T17:49:56.245Z,33.85
2023-02-11T17:52:24.689Z,25.70
2023-02-11T17:54:52.962Z,23.33
2023-02-11T17:57:21.157Z,23.05
2023-02-11T17:59:49.139Z,24.00
2023-02-11T18:02:17.096Z,24.33
2023-02-11T18:04:44.971Z,27.25
2023-02-11T18:07:13.011Z,27.75
2023-02-11T18:09:41.803Z,27.83
2023-02-11T18:12:11.089Z,34.63
2023-02-11T18:14:41.259Z,42.97
2023-02-11T18:17:09.461Z,54.95
2023-02-11T18:19:37.875Z,61.55
2023-02-11T18:22:05.885Z,71.47
2023-02-11T18:24:33.893Z,75.97
2023-02-11T18:27:01.975Z,83.88
2023-02-11T18:29:30.032Z,98.03
2023-02-11T18:31:58.303Z,98.13
2023-02-11T18:34:26.768Z,109.57
2023-02-11T18:36:54.668Z,108.30
2023-02-11T18:39:24.505Z,116.53
2023-02-11T18:41:55.023Z,132.27
2023-02-11T18:44:24.903Z,131.90
2023-02-11T18:46:53.614Z,134.07
2023-02-11T18:49:21.655Z,136.30
2023-02-11T18:51:49.803Z,140.13
2023-02-11T18:54:17.916Z,146.27
2023-02-11T18:56:48.812Z,148.73
2023-02-11T18:59:16.738Z,143.27
2023-02-11T19:01:47.148Z,148.55
2023-02-11T19:04:20.199Z,157.15
2023-02-11T19:06:50.237Z,166.40
2023-02-11T19:09:20.723Z,172.73
2023-02-11T19:11:52.569Z,180.05
2023-02-11T19:14:23.968Z,185.13
2023-02-11T19:16:54.332Z,181.35
2023-02-11T19:19:24.170Z,184.15
2023-02-11T19:21:52.231Z,198.40
2023-02-11T19:24:21.040Z,197.65
2023-02-11T19:26:50.484Z,206.40
2023-02-11T19:29:18.957Z,202.68
2023-02-11T19:31:47.145Z,206.60
2023-02-11T19:34:17.027Z,196.20
2023-02-11T19:36:45.064Z,201.95
2023-02-11T19:39:13.303Z,196.50
2023-02-11T19:41:41.251Z,203.20
2023-02-11T19:44:09.812Z,210.48
2023-02-11T19:46:41.139Z,207.48
2023-02-11T19:49:11.724Z,216.27
2023-02-11T19:51:39.802Z,211.68
2023-02-11T19:54:08.414Z,220.38
2023-02-11T19:56:38.450Z,212.23
2023-02-11T19:59:09.152Z,205.57
2023-02-11T20:01:37.364Z,208.27
2023-02-11T20:04:05.502Z,202.75
2023-02-11T20:06:34.063Z,205.75
2023-02-11T20:09:05.594Z,204.18
2023-02-11T20:11:34.894Z,201.35
2023-02-11T20:14:03.233Z,205.63
2023-02-11T20:16:47.030Z,200.13
2023-02-11T20:19:18.443Z,196.65
2023-02-11T20:21:48.825Z,197.88
2023-02-11T20:24:18.765Z,195.05
2023-02-11T20:26:48.763Z,182.35
2023-02-11T20:29:18.335Z,177.30
